Time;durP1;ratioP1;P1;durP2;ratioP2;P2;SDS_P1;SDS_P2;PMS_P1;PMS_P2;Temp;Humidity;BMP_temperature;BMP_pressure;BME280_temperature;BME280_humidity;BME280_pressure;Samples;Min_cycle;Max_cycle;Signal;HPM_P1;HPM_P2
2020/12/06 00:00:04;;;;;;;11.30;10.15;;;25.40;66.60;;;;;;5090674;27;20352;-61
2020/12/06 00:02:34;;;;;;;12.75;10.93;;;25.40;66.70;;;;;;5091577;27;20311;-61
2020/12/06 00:05:05;;;;;;;13.68;11.60;;;25.40;66.70;;;;;;5092015;27;20718;-60
2020/12/06 00:07:36;;;;;;;13.05;11.75;;;25.40;66.70;;;;;;5101819;28;20219;-60
2020/12/06 00:10:09;;;;;;;14.32;10.80;;;25.40;66.60;;;;;;5039969;28;20230;-62
2020/12/06 00:12:39;;;;;;;14.02;12.60;;;25.40;67.60;;;;;;5040337;28;20653;-62
2020/12/06 00:15:10;;;;;;;31.77;22.98;;;25.50;66.80;;;;;;5041128;28;20850;-62
2020/12/06 00:17:40;;;;;;;41.88;30.83;;;25.40;66.80;;;;;;5026071;28;20235;-61
2020/12/06 00:20:12;;;;;;;32.33;26.80;;;25.50;66.80;;;;;;5015901;28;20231;-62
2020/12/06 00:22:42;;;;;;;26.73;19.17;;;25.50;66.90;;;;;;5023513;28;20269;-62
2020/12/06 00:25:14;;;;;;;17.27;15.45;;;25.50;66.90;;;;;;5023884;28;20239;-61
2020/12/06 00:27:45;;;;;;;18.40;13.15;;;25.50;66.90;;;;;;5022640;28;20233;-62
2020/12/06 00:30:16;;;;;;;13.88;12.48;;;25.60;66.90;;;;;;5025127;28;20240;-62
2020/12/06 00:32:46;;;;;;;12.57;11.35;;;25.60;66.80;;;;;;5022952;28;20237;-61
2020/12/06 00:35:17;;;;;;;12.52;11.32;;;25.60;66.90;;;;;;5062722;28;20316;-60
2020/12/06 00:37:48;;;;;;;12.27;11.18;;;25.60;66.80;;;;;;5085908;28;20233;-60
2020/12/06 00:40:20;;;;;;;12.00;10.75;;;25.70;66.90;;;;;;5072549;28;20252;-61
2020/12/06 00:42:50;;;;;;;11.88;10.50;;;25.70;66.90;;;;;;5079846;28;20291;-61
2020/12/06 00:45:21;;;;;;;11.32;10.13;;;25.80;66.90;;;;;;5084984;28;20248;-62
2020/12/06 00:47:52;;;;;;;11.43;10.35;;;25.80;67.00;;;;;;5080897;28;20228;-60
2020/12/06 00:50:23;;;;;;;11.75;9.80;;;25.90;67.10;;;;;;5083543;28;20242;-61
2020/12/06 00:52:53;;;;;;;10.10;9.13;;;25.90;67.00;;;;;;5080900;28;20247;-61
2020/12/06 00:55:25;;;;;;;11.13;10.02;;;25.90;67.00;;;;;;5084269;28;20259;-61
2020/12/06 00:57:55;;;;;;;10.50;9.50;;;26.00;67.00;;;;;;5077348;28;20239;-61
2020/12/06 01:00:26;;;;;;;10.65;9.63;;;26.10;67.10;;;;;;5081020;28;20236;-61
2020/12/06 01:02:56;;;;;;;12.15;9.55;;;26.10;67.20;;;;;;5080755;28;20236;-61
2020/12/06 01:05:27;;;;;;;14.23;9.88;;;26.20;66.90;;;;;;5067170;28;20332;-61
2020/12/06 01:07:58;;;;;;;9.27;8.48;;;26.30;67.20;;;;;;5077798;28;20240;-61
2020/12/06 01:10:30;;;;;;;9.90;8.85;;;26.30;66.70;;;;;;5071135;28;20236;-60
2020/12/06 01:13:00;;;;;;;9.48;8.63;;;26.40;66.70;;;;;;5079564;28;20226;-61
2020/12/06 01:15:31;;;;;;;9.40;8.60;;;26.50;66.30;;;;;;5072693;28;20233;-61
2020/12/06 01:18:01;;;;;;;10.13;9.13;;;26.60;66.10;;;;;;5095668;27;20682;-60
2020/12/06 01:20:32;;;;;;;9.85;8.93;;;26.60;65.70;;;;;;5097245;27;20597;-61
2020/12/06 01:23:03;;;;;;;10.32;9.32;;;26.70;65.50;;;;;;5101483;27;20267;-60
2020/12/06 01:25:35;;;;;;;9.95;9.07;;;26.80;65.20;;;;;;5099092;28;20306;-61
2020/12/06 01:28:06;;;;;;;10.15;9.15;;;26.80;64.90;;;;;;5101104;28;20227;-59
2020/12/06 01:30:36;;;;;;;9.40;8.50;;;26.90;64.70;;;;;;5094531;28;20293;-64
2020/12/06 01:33:07;;;;;;;10.02;9.13;;;27.00;64.70;;;;;;5095731;27;20232;-62
2020/12/06 01:35:38;;;;;;;9.65;8.40;;;27.10;63.90;;;;;;5095014;27;20222;-62
2020/12/06 01:38:08;;;;;;;9.15;8.25;;;27.20;63.80;;;;;;5096005;28;20640;-63
2020/12/06 01:40:42;;;;;;;9.77;8.90;;;27.20;63.50;;;;;;5100357;27;20231;-61
2020/12/06 01:43:12;;;;;;;9.57;8.57;;;27.30;63.00;;;;;;5098929;27;20277;-62
2020/12/06 01:45:43;;;;;;;9.43;8.23;;;27.30;62.60;;;;;;5098879;27;20814;-61
2020/12/06 01:48:14;;;;;;;11.18;9.20;;;27.40;62.60;;;;;;5099323;27;20640;-61
2020/12/06 01:50:44;;;;;;;9.82;8.00;;;27.50;62.60;;;;;;5097072;27;20236;-61
2020/12/06 01:53:15;;;;;;;10.20;9.00;;;27.50;62.40;;;;;;5097355;27;20231;-62
2020/12/06 01:55:50;;;;;;;9.27;7.93;;;27.60;61.80;;;;;;5102285;27;20310;-62
2020/12/06 01:58:20;;;;;;;9.27;7.85;;;27.70;61.90;;;;;;5101992;27;20232;-60
2020/12/06 02:00:50;;;;;;;9.60;8.77;;;27.70;61.90;;;;;;5101316;27;20224;-62
2020/12/06 02:03:21;;;;;;;9.75;7.32;;;27.80;61.50;;;;;;5099031;27;20340;-61
2020/12/06 02:05:51;;;;;;;9.07;7.78;;;27.90;61.70;;;;;;5096711;27;20565;-61
2020/12/06 02:08:22;;;;;;;10.30;8.32;;;27.90;61.20;;;;;;5100823;27;20258;-61
2020/12/06 02:10:54;;;;;;;8.43;7.60;;;28.00;61.00;;;;;;5100452;27;20235;-61
2020/12/06 02:13:24;;;;;;;7.82;7.13;;;28.10;61.00;;;;;;5098879;27;20231;-61
2020/12/06 02:15:55;;;;;;;9.57;7.93;;;28.10;61.00;;;;;;5101304;27;20706;-61
2020/12/06 02:18:26;;;;;;;8.40;7.60;;;28.20;60.60;;;;;;5099810;28;20635;-62
2020/12/06 02:21:01;;;;;;;9.48;7.50;;;28.30;60.50;;;;;;5107158;27;20237;-60
2020/12/06 02:23:32;;;;;;;9.27;8.38;;;28.30;60.30;;;;;;5096659;28;20571;-61
2020/12/06 02:26:02;;;;;;;9.52;8.32;;;28.40;59.80;;;;;;5109980;27;20239;-62
2020/12/06 02:28:32;;;;;;;7.70;6.70;;;28.50;59.80;;;;;;5103421;27;20275;-61
2020/12/06 02:31:03;;;;;;;8.50;7.70;;;28.60;59.90;;;;;;5113286;27;20235;-61
2020/12/06 02:33:34;;;;;;;8.13;7.32;;;28.60;59.50;;;;;;5099262;27;20260;-61
2020/12/06 02:36:06;;;;;;;8.10;7.20;;;28.70;59.30;;;;;;5098625;27;20237;-62
2020/12/06 02:38:36;;;;;;;7.63;6.93;;;28.80;59.30;;;;;;5100014;27;20303;-61
2020/12/06 02:41:07;;;;;;;7.53;6.80;;;28.80;59.40;;;;;;5104547;27;20739;-62
2020/12/06 02:43:37;;;;;;;8.65;7.07;;;28.90;59.30;;;;;;5104785;27;20253;-61
2020/12/06 02:46:07;;;;;;;8.48;7.25;;;29.00;59.20;;;;;;5110052;27;20262;-61
2020/12/06 02:48:38;;;;;;;7.13;6.40;;;29.10;59.00;;;;;;5091147;28;20227;-62
2020/12/06 02:51:10;;;;;;;7.40;6.70;;;29.20;59.00;;;;;;5094265;27;20320;-61
2020/12/06 02:53:41;;;;;;;8.30;7.50;;;29.30;58.60;;;;;;5105473;27;20236;-62
2020/12/06 02:56:11;;;;;;;7.13;6.53;;;29.40;58.50;;;;;;5102962;27;20312;-61
2020/12/06 02:58:42;;;;;;;8.32;7.15;;;29.40;58.20;;;;;;5109118;27;20281;-65
2020/12/06 03:01:13;;;;;;;7.70;7.00;;;29.50;58.30;;;;;;5098002;28;20250;-62
2020/12/06 03:03:43;;;;;;;8.50;7.35;;;29.60;57.80;;;;;;5102842;27;20223;-62
2020/12/06 03:06:15;;;;;;;10.57;7.63;;;29.70;57.50;;;;;;5106249;27;20601;-61
2020/12/06 03:08:45;;;;;;;7.25;6.18;;;29.80;57.20;;;;;;5092408;28;20230;-62
2020/12/06 03:11:16;;;;;;;7.65;6.82;;;29.90;57.10;;;;;;5091606;28;20285;-62
2020/12/06 03:13:47;;;;;;;7.00;6.30;;;30.00;57.10;;;;;;5097908;27;20322;-62
2020/12/06 03:16:18;;;;;;;8.00;6.50;;;30.10;56.70;;;;;;5088457;27;20257;-61
2020/12/06 03:18:48;;;;;;;7.10;6.40;;;30.10;56.00;;;;;;5103846;27;20242;-62
2020/12/06 03:21:20;;;;;;;7.75;7.05;;;30.30;56.30;;;;;;5092409;28;20251;-62
2020/12/06 03:23:51;;;;;;;6.93;6.32;;;30.30;55.60;;;;;;5100150;27;20227;-62
2020/12/06 03:26:21;;;;;;;7.32;6.47;;;30.40;54.70;;;;;;5098656;27;20239;-62
2020/12/06 03:28:51;;;;;;;7.07;6.40;;;30.40;54.80;;;;;;5095272;28;20231;-61
2020/12/06 03:31:22;;;;;;;7.53;6.93;;;30.50;54.50;;;;;;5092407;28;20236;-61
2020/12/06 03:33:52;;;;;;;7.60;6.90;;;30.50;54.40;;;;;;5102015;27;20310;-62
2020/12/06 03:36:24;;;;;;;6.50;5.90;;;30.50;53.60;;;;;;5107922;27;20309;-61
2020/12/06 03:38:55;;;;;;;7.47;6.72;;;30.60;53.90;;;;;;5103726;27;20232;-62
2020/12/06 03:41:25;;;;;;;6.53;5.93;;;30.60;53.70;;;;;;5110114;27;20295;-62
2020/12/06 03:43:56;;;;;;;7.47;6.60;;;30.70;54.00;;;;;;5108438;27;20709;-62
2020/12/06 03:46:27;;;;;;;7.57;6.97;;;30.70;54.00;;;;;;5100956;27;20628;-61
2020/12/06 03:48:57;;;;;;;6.82;6.18;;;30.70;53.20;;;;;;5108531;27;20239;-62
2020/12/06 03:51:30;;;;;;;7.00;6.40;;;30.80;53.30;;;;;;5088190;28;20229;-62
2020/12/06 03:54:01;;;;;;;7.10;5.95;;;30.80;52.80;;;;;;5103494;27;20231;-62
2020/12/06 03:56:31;;;;;;;7.50;6.75;;;30.80;53.30;;;;;;5107294;27;20266;-62
2020/12/06 03:59:02;;;;;;;6.63;6.03;;;30.90;52.60;;;;;;5112834;27;20238;-61
2020/12/06 04:01:32;;;;;;;7.55;6.85;;;30.90;52.90;;;;;;5106853;27;20274;-61
2020/12/06 04:04:04;;;;;;;7.50;6.80;;;30.90;53.00;;;;;;5079085;27;20225;-61
2020/12/06 04:06:36;;;;;;;7.28;5.90;;;31.00;53.10;;;;;;5101070;27;20243;-63
2020/12/06 04:09:06;;;;;;;7.40;6.70;;;31.00;52.20;;;;;;5093885;27;20612;-60
2020/12/06 04:11:36;;;;;;;7.45;6.63;;;31.00;52.40;;;;;;5084555;28;20599;-62
2020/12/06 04:14:07;;;;;;;7.43;6.80;;;31.10;52.90;;;;;;5091024;28;20247;-62
2020/12/06 04:16:38;;;;;;;9.80;6.57;;;31.10;52.80;;;;;;5102429;27;20266;-62
2020/12/06 04:19:09;;;;;;;7.47;6.78;;;31.20;52.50;;;;;;5094379;27;20633;-62
2020/12/06 04:21:40;;;;;;;7.60;7.00;;;31.20;52.00;;;;;;5104068;27;20413;-61
2020/12/06 04:24:12;;;;;;;7.93;7.13;;;31.30;52.00;;;;;;5098315;27;20227;-62
2020/12/06 04:26:42;;;;;;;7.18;6.55;;;31.30;51.70;;;;;;5100325;27;20229;-62
2020/12/06 04:29:13;;;;;;;6.68;5.93;;;31.30;51.80;;;;;;5103199;27;20979;-62
2020/12/06 04:31:45;;;;;;;7.22;6.63;;;31.30;51.90;;;;;;5102481;27;20585;-62
2020/12/06 04:34:15;;;;;;;6.45;5.95;;;31.30;52.00;;;;;;5098228;27;20259;-62
2020/12/06 04:36:47;;;;;;;10.45;6.70;;;31.30;52.10;;;;;;5101393;27;20293;-66
2020/12/06 04:39:18;;;;;;;6.70;6.15;;;31.40;52.00;;;;;;5105708;27;20330;-65
2020/12/06 04:41:48;;;;;;;6.72;5.85;;;31.40;52.70;;;;;;5099508;27;20285;-62
2020/12/06 04:44:20;;;;;;;6.68;6.03;;;31.40;52.30;;;;;;5105416;27;20278;-62
2020/12/06 04:46:50;;;;;;;7.50;6.90;;;31.50;52.00;;;;;;5107976;27;20255;-62
2020/12/06 04:49:45;;;;;;;7.93;7.18;;;31.50;51.70;;;;;;5084790;27;20235;-62
2020/12/06 04:52:19;;;;;;;7.18;6.47;;;31.50;51.60;;;;;;5101107;27;20635;-63
2020/12/06 04:54:52;;;;;;;6.88;6.18;;;31.60;51.70;;;;;;5086626;27;20598;-62
2020/12/06 04:57:23;;;;;;;7.55;6.85;;;31.60;51.70;;;;;;5096958;28;20315;-62
2020/12/06 04:59:53;;;;;;;6.47;5.88;;;31.70;51.80;;;;;;5108820;27;20234;-62
2020/12/06 05:02:24;;;;;;;7.78;7.03;;;31.70;51.80;;;;;;5097121;27;20263;-61
2020/12/06 05:04:54;;;;;;;7.70;6.90;;;31.80;51.50;;;;;;5103484;27;20739;-62
2020/12/06 05:07:27;;;;;;;6.45;5.85;;;31.80;51.20;;;;;;5035371;28;20236;-62
2020/12/06 05:09:57;;;;;;;6.43;5.90;;;31.90;51.10;;;;;;5033206;28;20360;-62
2020/12/06 05:12:28;;;;;;;6.60;5.90;;;32.00;50.70;;;;;;5034411;28;20233;-62
2020/12/06 05:14:59;;;;;;;7.38;6.78;;;32.10;50.40;;;;;;5039869;28;20234;-62
2020/12/06 05:17:30;;;;;;;6.50;5.90;;;32.10;50.50;;;;;;5028304;28;20237;-62
2020/12/06 05:20:10;;;;;;;7.22;6.53;;;32.10;50.70;;;;;;5034700;28;20902;-62
2020/12/06 05:22:46;;;;;;;7.40;6.25;;;32.20;50.60;;;;;;5030272;28;20223;-63
2020/12/06 05:25:17;;;;;;;7.82;7.13;;;32.30;50.40;;;;;;5042232;28;20218;-63
2020/12/06 05:27:49;;;;;;;7.40;6.70;;;32.30;50.20;;;;;;5041283;28;20234;-63
2020/12/06 05:30:19;;;;;;;6.45;5.95;;;32.30;50.40;;;;;;5043734;28;20244;-63
2020/12/06 05:32:50;;;;;;;7.60;6.63;;;32.40;50.20;;;;;;5089734;27;20236;-63
2020/12/06 05:35:21;;;;;;;6.63;6.13;;;32.40;50.10;;;;;;5099546;27;20224;-63
2020/12/06 05:37:53;;;;;;;6.28;5.78;;;32.40;50.30;;;;;;5089508;27;20341;-63
2020/12/06 05:40:23;;;;;;;7.05;5.88;;;32.50;50.30;;;;;;5102257;27;20232;-63
2020/12/06 05:42:54;;;;;;;6.47;5.88;;;32.50;50.40;;;;;;5103399;27;20254;-63
2020/12/06 05:45:24;;;;;;;7.15;6.55;;;32.50;50.30;;;;;;5037176;28;20747;-64
2020/12/06 05:47:55;;;;;;;7.70;6.85;;;32.60;50.30;;;;;;5039512;28;20279;-63
2020/12/06 05:50:26;;;;;;;6.70;6.10;;;32.70;49.60;;;;;;4999807;28;20270;-63
2020/12/06 05:52:58;;;;;;;7.45;6.75;;;32.70;49.90;;;;;;4932266;28;20335;-63
2020/12/06 05:55:33;;;;;;;6.80;6.30;;;32.80;50.00;;;;;;4943516;28;20712;-63
2020/12/06 05:58:06;;;;;;;7.32;6.63;;;32.80;49.80;;;;;;4947419;28;20308;-63
2020/12/06 06:00:37;;;;;;;7.75;6.22;;;32.80;49.30;;;;;;4942927;28;20240;-63
2020/12/06 06:03:08;;;;;;;7.63;6.93;;;32.90;49.10;;;;;;4943003;28;20260;-63
2020/12/06 06:05:38;;;;;;;6.50;5.93;;;33.00;49.20;;;;;;4943902;28;20240;-64
2020/12/06 06:08:10;;;;;;;7.32;5.55;;;32.90;49.60;;;;;;4936799;28;20271;-64
2020/12/06 06:10:41;;;;;;;7.15;6.45;;;33.00;49.70;;;;;;4936501;28;20243;-64
2020/12/06 06:13:12;;;;;;;6.78;6.18;;;33.00;49.90;;;;;;4944018;28;20796;-64
2020/12/06 06:15:43;;;;;;;7.00;6.30;;;33.10;49.40;;;;;;4960573;28;20227;-63
2020/12/06 06:18:14;;;;;;;8.85;7.32;;;33.10;48.90;;;;;;5007117;28;20246;-64
2020/12/06 06:20:44;;;;;;;7.80;7.10;;;33.20;49.10;;;;;;5007916;28;20272;-63
2020/12/06 06:23:16;;;;;;;6.88;6.03;;;33.20;49.20;;;;;;5051886;28;20303;-63
2020/12/06 06:25:48;;;;;;;6.70;6.10;;;33.20;49.10;;;;;;5056737;28;20241;-63
2020/12/06 06:28:19;;;;;;;6.95;6.30;;;33.30;49.60;;;;;;5057499;28;20295;-64
2020/12/06 06:30:49;;;;;;;8.52;7.38;;;33.30;49.50;;;;;;5014811;28;20872;-68
2020/12/06 06:33:22;;;;;;;7.63;6.93;;;33.40;49.50;;;;;;4987966;28;20251;-64
2020/12/06 06:35:53;;;;;;;8.93;7.30;;;33.40;48.50;;;;;;4975447;28;20313;-63
2020/12/06 06:38:44;;;;;;;7.78;7.00;;;33.40;48.50;;;;;;4971495;28;20278;-64
2020/12/06 06:41:15;;;;;;;7.57;6.70;;;33.50;48.30;;;;;;4980499;28;20767;-63
2020/12/06 06:43:45;;;;;;;6.22;5.72;;;33.50;48.20;;;;;;4979807;28;20749;-63
2020/12/06 06:46:17;;;;;;;6.32;5.82;;;33.50;48.50;;;;;;4984955;28;20268;-64
2020/12/06 06:48:48;;;;;;;6.45;5.95;;;33.60;48.50;;;;;;4988213;28;20228;-64
2020/12/06 06:51:21;;;;;;;6.68;6.07;;;33.60;48.50;;;;;;4982239;28;20754;-63
2020/12/06 06:53:53;;;;;;;5.57;5.18;;;33.60;48.40;;;;;;4969561;28;20231;-63
2020/12/06 06:56:23;;;;;;;7.53;6.93;;;33.60;48.30;;;;;;5032250;28;20327;-63
2020/12/06 06:58:55;;;;;;;8.13;6.25;;;33.70;48.00;;;;;;5062415;28;20729;-63
2020/12/06 07:01:25;;;;;;;6.55;5.95;;;33.80;48.10;;;;;;5048383;28;20236;-63
2020/12/06 07:03:56;;;;;;;6.45;5.90;;;33.80;47.40;;;;;;5073341;28;20758;-63
2020/12/06 07:06:47;;;;;;;5.82;5.32;;;33.80;47.40;;;;;;5097374;28;20282;-63
2020/12/06 07:09:23;;;;;;;6.63;6.03;;;33.80;47.50;;;;;;5099255;28;20224;-63
2020/12/06 07:11:55;;;;;;;6.75;6.15;;;33.80;47.50;;;;;;5099694;27;20262;-63
2020/12/06 07:14:26;;;;;;;6.78;6.18;;;33.80;47.20;;;;;;5086412;27;20231;-63
2020/12/06 07:17:15;;;;;;;7.22;6.47;;;33.80;47.40;;;;;;5096385;27;20247;-63
2020/12/06 07:19:48;;;;;;;6.55;5.97;;;33.80;47.50;;;;;;5084379;28;20224;-63
2020/12/06 07:22:19;;;;;;;6.40;5.90;;;33.80;47.50;;;;;;5096898;28;20699;-63
2020/12/06 07:24:51;;;;;;;6.57;5.97;;;33.90;47.70;;;;;;5094021;28;20236;-63
2020/12/06 07:27:21;;;;;;;7.60;6.93;;;33.90;47.60;;;;;;5092531;27;20238;-63
2020/12/06 07:29:52;;;;;;;7.40;6.80;;;33.90;47.40;;;;;;5098231;27;20319;-63
2020/12/06 07:32:22;;;;;;;7.05;6.38;;;33.90;47.10;;;;;;5099738;28;20764;-64
2020/12/06 07:34:53;;;;;;;6.22;5.60;;;34.00;47.10;;;;;;5096801;27;20251;-64
2020/12/06 07:37:24;;;;;;;6.28;5.78;;;34.00;47.60;;;;;;5094913;27;20247;-64
2020/12/06 07:39:55;;;;;;;6.32;5.72;;;34.00;47.50;;;;;;5096437;28;20224;-64
2020/12/06 07:42:26;;;;;;;7.13;6.53;;;34.10;47.60;;;;;;5088729;28;20224;-64
2020/12/06 07:44:57;;;;;;;6.80;6.20;;;34.10;47.20;;;;;;5098051;27;20652;-64
2020/12/06 07:47:28;;;;;;;7.45;6.68;;;34.10;47.20;;;;;;5098694;28;20720;-63
2020/12/06 07:49:59;;;;;;;7.32;6.72;;;34.10;47.20;;;;;;5101131;27;20286;-64
2020/12/06 07:52:32;;;;;;;8.57;7.72;;;34.10;47.20;;;;;;5097926;27;20304;-61
2020/12/06 07:55:05;;;;;;;8.60;7.90;;;34.10;47.10;;;;;;5104333;27;20242;-61
2020/12/06 07:57:42;;;;;;;10.25;8.13;;;34.20;47.40;;;;;;5103039;27;20292;-62
2020/12/06 08:00:13;;;;;;;8.25;7.55;;;34.20;47.30;;;;;;5105595;27;20610;-62
2020/12/06 08:02:47;;;;;;;8.57;7.85;;;34.20;46.90;;;;;;5108017;27;20706;-62
2020/12/06 08:05:19;;;;;;;7.75;7.07;;;34.20;46.60;;;;;;5096569;27;20241;-62
2020/12/06 08:07:51;;;;;;;8.15;7.47;;;34.20;46.80;;;;;;5100400;27;20235;-62
2020/12/06 08:10:23;;;;;;;8.23;7.43;;;34.20;46.70;;;;;;5097417;27;20232;-62
2020/12/06 08:12:54;;;;;;;8.93;8.13;;;34.10;46.60;;;;;;5097483;27;20257;-62
2020/12/06 08:15:26;;;;;;;9.45;8.55;;;34.10;46.50;;;;;;5100123;27;20273;-62
2020/12/06 08:17:58;;;;;;;7.95;7.18;;;34.10;46.70;;;;;;5091996;27;20595;-62
2020/12/06 08:20:29;;;;;;;7.32;6.63;;;34.10;46.70;;;;;;5102214;27;20765;-62
2020/12/06 08:23:00;;;;;;;9.23;8.10;;;34.00;46.90;;;;;;5097331;27;20273;-63
2020/12/06 08:25:33;;;;;;;7.97;7.28;;;34.10;47.00;;;;;;5098248;27;20232;-61
2020/12/06 08:28:03;;;;;;;7.03;6.43;;;34.00;47.20;;;;;;5099110;27;20224;-62
2020/12/06 08:30:34;;;;;;;7.60;6.82;;;34.00;47.30;;;;;;5096632;27;20319;-62
2020/12/06 08:33:05;;;;;;;7.93;7.13;;;34.10;47.30;;;;;;5097724;27;20228;-62
2020/12/06 08:35:40;;;;;;;8.38;7.45;;;34.10;47.30;;;;;;5098143;27;20231;-61
2020/12/06 08:38:18;;;;;;;8.75;7.95;;;34.10;47.30;;;;;;5099628;27;20227;-63
2020/12/06 08:41:06;;;;;;;7.70;7.00;;;34.10;47.20;;;;;;5098974;27;20234;-62
2020/12/06 08:43:46;;;;;;;7.22;6.63;;;34.10;47.30;;;;;;5096344;27;20259;-61
2020/12/06 08:46:18;;;;;;;7.90;7.20;;;34.20;47.50;;;;;;5099654;27;20686;-61
2020/12/06 08:48:49;;;;;;;8.18;7.38;;;34.20;47.20;;;;;;5102212;27;20236;-63
2020/12/06 08:51:26;;;;;;;8.30;7.50;;;34.20;47.20;;;;;;5101967;27;20998;-63
2020/12/06 08:53:57;;;;;;;7.28;6.57;;;34.20;47.10;;;;;;5096241;27;20223;-63
2020/12/06 08:56:35;;;;;;;8.60;7.25;;;34.20;46.90;;;;;;5101686;27;20238;-63
2020/12/06 08:59:06;;;;;;;7.20;6.60;;;34.10;47.00;;;;;;5102411;27;20220;-63
2020/12/06 09:01:47;;;;;;;7.57;6.82;;;34.10;47.20;;;;;;5099050;27;20230;-63
2020/12/06 09:04:17;;;;;;;6.70;6.20;;;34.10;47.20;;;;;;5097941;27;20242;-63
2020/12/06 09:06:48;;;;;;;6.50;5.90;;;34.10;47.30;;;;;;5100133;27;20319;-63
2020/12/06 09:09:18;;;;;;;7.20;6.53;;;34.10;47.50;;;;;;5102616;27;20231;-63
2020/12/06 09:11:53;;;;;;;6.65;6.05;;;34.10;47.50;;;;;;5101712;27;20285;-63
2020/12/06 09:14:24;;;;;;;10.70;8.35;;;34.10;47.60;;;;;;5098774;27;20792;-63
2020/12/06 09:16:54;;;;;;;8.80;8.00;;;34.10;47.30;;;;;;5096585;27;20280;-63
2020/12/06 09:19:26;;;;;;;8.07;7.38;;;34.20;47.20;;;;;;5098522;27;20236;-62
2020/12/06 09:21:57;;;;;;;7.18;6.57;;;34.10;47.20;;;;;;5101220;27;20614;-63
2020/12/06 09:24:28;;;;;;;8.00;7.20;;;34.10;47.40;;;;;;5103024;27;20227;-62
2020/12/06 09:27:00;;;;;;;9.45;8.20;;;34.10;47.50;;;;;;5102053;27;20598;-63
2020/12/06 09:29:31;;;;;;;10.13;9.18;;;34.10;47.40;;;;;;5100872;27;20227;-63
2020/12/06 09:32:02;;;;;;;9.32;8.52;;;34.10;47.40;;;;;;5093967;28;20602;-63
2020/12/06 09:34:33;;;;;;;9.00;8.20;;;34.10;47.30;;;;;;5094257;28;20228;-63
2020/12/06 09:37:04;;;;;;;8.07;7.38;;;34.00;47.30;;;;;;5096199;27;20588;-62
2020/12/06 09:39:34;;;;;;;9.82;7.15;;;34.00;47.70;;;;;;5088770;28;20304;-62
2020/12/06 09:42:06;;;;;;;8.13;7.35;;;33.90;47.70;;;;;;5084495;27;20225;-62
2020/12/06 09:44:37;;;;;;;6.93;6.32;;;33.90;47.70;;;;;;5099417;27;20224;-62
2020/12/06 09:47:08;;;;;;;6.88;6.28;;;33.80;47.50;;;;;;5096938;27;20235;-61
2020/12/06 09:49:39;;;;;;;7.25;5.88;;;33.80;47.60;;;;;;5099476;27;20225;-62
2020/12/06 09:52:09;;;;;;;7.05;6.45;;;33.80;47.80;;;;;;5106845;27;20227;-62
2020/12/06 09:54:40;;;;;;;7.88;7.18;;;33.80;48.70;;;;;;5104106;27;20302;-62
2020/12/06 09:57:11;;;;;;;8.15;6.75;;;33.80;48.00;;;;;;5103166;27;20231;-62
2020/12/06 09:59:42;;;;;;;8.02;7.32;;;33.80;48.20;;;;;;5100742;27;20228;-62
2020/12/06 10:02:13;;;;;;;8.27;7.47;;;33.70;48.10;;;;;;5098532;27;20992;-62
2020/12/06 10:04:44;;;;;;;8.63;7.82;;;33.70;48.20;;;;;;5104743;27;20232;-62
2020/12/06 10:07:14;;;;;;;10.70;9.73;;;33.70;48.20;;;;;;5097441;27;20246;-61
2020/12/06 10:09:45;;;;;;;22.27;20.20;;;33.70;48.20;;;;;;5094246;27;20232;-62
2020/12/06 10:12:17;;;;;;;25.13;22.67;;;33.60;48.30;;;;;;5096956;27;20224;-62
2020/12/06 10:14:48;;;;;;;15.32;13.85;;;33.60;48.30;;;;;;5098858;27;20626;-62
2020/12/06 10:17:19;;;;;;;11.35;10.15;;;33.60;48.30;;;;;;5089377;27;20314;-63
2020/12/06 10:19:50;;;;;;;10.18;8.55;;;33.50;48.30;;;;;;5098643;27;20238;-62
2020/12/06 10:22:20;;;;;;;8.15;7.45;;;33.50;48.50;;;;;;5098475;27;21202;-62
2020/12/06 10:25:06;;;;;;;8.50;7.70;;;33.40;48.60;;;;;;5088341;28;20301;-62
2020/12/06 10:27:38;;;;;;;10.60;6.88;;;33.40;48.60;;;;;;5098026;27;20228;-62
2020/12/06 10:30:09;;;;;;;9.65;7.20;;;33.30;48.80;;;;;;5101969;27;20840;-62
2020/12/06 10:32:40;;;;;;;10.32;9.23;;;33.20;49.00;;;;;;5097122;27;20259;-62
2020/12/06 10:35:10;;;;;;;10.70;9.60;;;33.10;49.10;;;;;;5093037;27;20771;-63
2020/12/06 10:37:41;;;;;;;11.18;9.77;;;33.00;49.30;;;;;;5089805;27;20228;-62
2020/12/06 10:40:12;;;;;;;10.88;9.88;;;33.00;49.50;;;;;;5086213;27;20231;-62
2020/12/06 10:42:45;;;;;;;9.82;8.32;;;32.90;49.60;;;;;;5088482;27;20254;-63
2020/12/06 10:45:16;;;;;;;9.30;8.15;;;32.90;49.80;;;;;;5077215;28;20607;-63
2020/12/06 10:47:46;;;;;;;9.57;8.63;;;32.80;49.90;;;;;;5090933;28;20714;-62
2020/12/06 10:50:16;;;;;;;10.23;8.85;;;32.70;50.00;;;;;;5081877;27;20826;-61
2020/12/06 10:52:47;;;;;;;12.07;10.25;;;32.60;50.10;;;;;;5088482;28;20236;-63
2020/12/06 10:55:18;;;;;;;10.25;9.25;;;32.60;50.20;;;;;;5103122;27;20359;-63
2020/12/06 10:57:50;;;;;;;10.38;9.38;;;32.50;50.30;;;;;;5099179;27;20258;-62
2020/12/06 11:00:20;;;;;;;10.43;9.43;;;32.50;50.50;;;;;;5099051;27;20228;-62
2020/12/06 11:02:51;;;;;;;13.88;12.48;;;32.40;50.60;;;;;;5105115;27;20229;-63
2020/12/06 11:05:21;;;;;;;16.08;14.38;;;32.40;51.10;;;;;;5091140;28;20586;-62
2020/12/06 11:07:52;;;;;;;20.17;17.75;;;32.30;51.10;;;;;;5082174;27;20265;-63
2020/12/06 11:10:23;;;;;;;29.05;25.83;;;32.30;51.20;;;;;;5095415;27;20232;-62
2020/12/06 11:12:54;;;;;;;24.95;22.38;;;32.20;51.30;;;;;;5097900;27;20235;-63
2020/12/06 11:15:26;;;;;;;20.42;18.20;;;32.20;51.50;;;;;;5090209;28;20247;-62
2020/12/06 11:18:11;;;;;;;18.98;16.70;;;32.10;51.40;;;;;;5085771;27;20699;-62
2020/12/06 11:20:42;;;;;;;17.00;15.20;;;32.10;51.70;;;;;;5095649;27;20227;-61
2020/12/06 11:23:13;;;;;;;13.70;11.93;;;32.00;51.70;;;;;;5095945;28;20679;-61
2020/12/06 11:25:44;;;;;;;14.20;11.20;;;32.00;51.90;;;;;;5100288;27;21934;-63
2020/12/06 11:28:16;;;;;;;13.45;9.63;;;31.90;51.80;;;;;;5104756;27;20241;-63
2020/12/06 11:30:47;;;;;;;11.23;8.20;;;31.90;52.00;;;;;;5106313;27;20723;-63
2020/12/06 11:33:17;;;;;;;7.78;7.07;;;31.80;52.10;;;;;;5109650;27;20729;-62
2020/12/06 11:35:48;;;;;;;9.60;7.45;;;31.70;52.10;;;;;;5107702;27;20231;-63
2020/12/06 11:38:19;;;;;;;8.70;7.80;;;31.70;52.40;;;;;;5112831;27;20755;-63
2020/12/06 11:40:49;;;;;;;8.63;7.18;;;31.70;52.50;;;;;;5105941;27;20230;-63
2020/12/06 11:43:21;;;;;;;10.73;8.32;;;31.60;52.60;;;;;;5106203;27;20244;-63
2020/12/06 11:45:52;;;;;;;8.55;7.45;;;31.60;52.80;;;;;;5110013;27;20231;-64
2020/12/06 11:48:22;;;;;;;9.57;7.25;;;31.50;52.70;;;;;;5100556;27;20231;-63
2020/12/06 11:50:53;;;;;;;7.35;6.65;;;31.50;52.80;;;;;;5104743;27;20247;-63
2020/12/06 11:53:23;;;;;;;7.72;6.97;;;31.40;52.90;;;;;;5103822;27;20234;-63
2020/12/06 11:55:54;;;;;;;8.80;7.90;;;31.40;53.20;;;;;;5102052;27;20255;-63
2020/12/06 12:01:10;;;;;;;8.52;7.55;;;31.20;53.30;;;;;;5097015;27;20234;-62
2020/12/06 12:03:41;;;;;;;8.15;7.35;;;31.20;53.40;;;;;;5102150;27;20269;-63
2020/12/06 12:06:13;;;;;;;7.93;7.22;;;31.20;53.50;;;;;;5101485;27;20239;-63
2020/12/06 12:08:43;;;;;;;8.40;7.60;;;31.10;53.70;;;;;;5100807;27;20224;-62
2020/12/06 12:11:14;;;;;;;7.60;6.80;;;31.10;53.90;;;;;;5107694;27;20678;-62
2020/12/06 12:13:46;;;;;;;7.70;6.75;;;31.00;53.80;;;;;;5103640;27;20729;-63
2020/12/06 12:16:16;;;;;;;7.22;6.55;;;31.00;54.00;;;;;;5104612;27;20346;-62
2020/12/06 12:18:47;;;;;;;7.15;6.45;;;31.00;54.00;;;;;;5107129;27;20234;-62
2020/12/06 12:21:19;;;;;;;6.65;6.05;;;30.90;54.00;;;;;;5101099;27;20243;-63
2020/12/06 12:23:49;;;;;;;6.82;6.22;;;30.90;54.00;;;;;;5100519;27;20238;-62
2020/12/06 12:26:24;;;;;;;7.57;6.30;;;30.90;54.10;;;;;;5092177;27;20245;-62
2020/12/06 12:28:56;;;;;;;7.55;6.82;;;30.80;54.30;;;;;;5103825;27;20234;-62
2020/12/06 12:31:27;;;;;;;6.32;5.60;;;30.80;54.40;;;;;;5103503;27;20288;-62
2020/12/06 12:33:59;;;;;;;7.22;6.22;;;30.80;54.40;;;;;;5110325;27;20230;-63
2020/12/06 12:36:30;;;;;;;8.30;6.13;;;30.70;54.50;;;;;;5100600;27;20271;-63
2020/12/06 12:39:01;;;;;;;8.02;5.78;;;30.70;54.70;;;;;;5103685;27;20243;-62
2020/12/06 12:41:34;;;;;;;7.70;5.70;;;30.70;54.80;;;;;;5087346;27;20231;-62
2020/12/06 12:44:06;;;;;;;6.65;6.05;;;30.60;54.70;;;;;;5102252;27;20680;-63
2020/12/06 12:46:36;;;;;;;6.22;5.70;;;30.60;54.80;;;;;;5096114;27;20251;-63
2020/12/06 12:49:07;;;;;;;5.57;5.07;;;30.60;54.90;;;;;;5106784;27;20235;-63
2020/12/06 12:51:38;;;;;;;6.63;5.45;;;30.50;54.90;;;;;;5101052;27;20228;-63
2020/12/06 12:54:08;;;;;;;6.00;5.40;;;30.50;55.00;;;;;;5101831;27;20223;-63
2020/12/06 12:56:42;;;;;;;6.47;5.82;;;30.50;55.00;;;;;;5096369;27;20250;-63
2020/12/06 12:59:14;;;;;;;6.13;5.63;;;30.50;55.30;;;;;;5092066;27;20232;-62
2020/12/06 13:01:44;;;;;;;7.00;5.90;;;30.40;55.40;;;;;;5094358;27;20220;-62
2020/12/06 13:04:15;;;;;;;9.18;6.15;;;30.40;55.50;;;;;;5100198;27;20622;-63
2020/12/06 13:06:46;;;;;;;6.10;5.60;;;30.30;55.50;;;;;;5104162;27;20273;-62